createdAt,value
2016-10-05T00:01:04.256Z,59.83
2016-10-05T00:02:13.926Z,59.92
2016-10-05T00:03:24.238Z,60.11
2016-10-05T00:04:34.524Z,60.11
2016-10-05T00:05:44.517Z,59.92
2016-10-05T00:06:54.802Z,59.92
2016-10-05T00:08:04.791Z,59.92
2016-10-05T00:09:15.082Z,60.02
2016-10-05T00:10:25.362Z,60.11
2016-10-05T00:11:35.354Z,59.83
2016-10-05T00:12:45.321Z,60.08
2016-10-05T00:13:55.303Z,60.11
2016-10-05T00:15:05.259Z,60.27
2016-10-05T00:16:15.256Z,60.3
2016-10-05T00:17:25.220Z,59.99
2016-10-05T00:18:35.210Z,60.02
2016-10-05T00:19:45.513Z,59.89
2016-10-05T00:20:55.787Z,59.7
2016-10-05T00:22:06.070Z,60.08
2016-10-05T00:23:16.369Z,59.92
2016-10-05T00:24:26.351Z,59.83
2016-10-05T00:25:36.315Z,60.3
2016-10-05T00:26:46.608Z,59.64
2016-10-05T00:27:56.899Z,59.83
2016-10-05T00:29:06.877Z,59.74
2016-10-05T00:30:16.854Z,59.83
2016-10-05T00:31:27.134Z,59.83
2016-10-05T00:32:36.807Z,59.64
2016-10-05T00:33:46.467Z,59.83
2016-10-05T00:34:56.140Z,59.83
2016-10-05T00:36:06.460Z,59.83
2016-10-05T00:37:16.442Z,59.76
2016-10-05T00:38:26.735Z,59.64
2016-10-05T00:39:36.750Z,59.76
2016-10-05T00:40:46.727Z,59.67
2016-10-05T00:41:56.699Z,59.67
2016-10-05T00:43:06.676Z,59.67
2016-10-05T00:44:16.663Z,59.76
2016-10-05T00:45:26.995Z,60.05
2016-10-05T00:46:36.977Z,60.24
2016-10-05T00:47:47.254Z,60.05
2016-10-05T00:48:57.550Z,59.95
2016-10-05T00:50:07.846Z,60.05
2016-10-05T00:51:17.508Z,60.05
2016-10-05T00:52:27.189Z,59.86
2016-10-05T00:53:37.491Z,59.95
2016-10-05T00:54:47.779Z,59.86
2016-10-05T00:55:57.744Z,59.86
2016-10-05T00:57:07.717Z,60.33
2016-10-05T00:58:17.993Z,60.24
2016-10-05T00:59:28.271Z,60.24
2016-10-05T01:00:38.252Z,60.05
2016-10-05T01:01:47.922Z,59.86
2016-10-05T01:02:57.595Z,59.86
2016-10-05T01:04:07.280Z,60.52
2016-10-05T01:05:17.570Z,60.43
2016-10-05T01:06:27.555Z,60.43
2016-10-05T01:07:37.553Z,60.33
2016-10-05T01:08:47.539Z,60.33
2016-10-05T01:09:57.506Z,60.4
2016-10-05T01:11:07.818Z,59.95
2016-10-05T01:12:17.792Z,60.3
2016-10-05T01:13:28.066Z,60.49
2016-10-05T01:14:38.353Z,60.02
2016-10-05T01:15:48.333Z,60.3
2016-10-05T01:16:58.615Z,60.21
2016-10-05T01:18:08.600Z,60.3
2016-10-05T01:19:18.583Z,60.11
2016-10-05T01:20:28.869Z,60.02
2016-10-05T01:21:39.141Z,60.4
2016-10-05T01:22:49.118Z,60.49
2016-10-05T01:23:58.790Z,60.4
2016-10-05T01:25:08.462Z,60.4
2016-10-05T01:26:18.443Z,60.4
2016-10-05T01:27:28.104Z,60.4
2016-10-05T01:28:38.372Z,60.59
2016-10-05T01:29:48.034Z,60.59
2016-10-05T01:30:58.030Z,60.4
2016-10-05T01:32:07.999Z,60.59
2016-10-05T01:33:18.277Z,60.59
2016-10-05T01:34:28.553Z,60.59
2016-10-05T01:35:38.842Z,60.11
2016-10-05T01:36:48.819Z,59.83
2016-10-05T01:37:58.791Z,60.49
2016-10-05T01:39:08.463Z,60.49
2016-10-05T01:40:18.755Z,60.02
2016-10-05T01:41:29.039Z,59.92
2016-10-05T01:42:39.319Z,60.02
2016-10-05T01:43:49.599Z,59.92
2016-10-05T01:44:59.881Z,60.11
2016-10-05T01:46:09.547Z,60.21
2016-10-05T01:47:19.220Z,60.11
2016-10-05T01:48:29.221Z,60.21
2016-10-05T01:49:39.193Z,60.11
2016-10-05T01:50:48.852Z,60.4
2016-10-05T01:51:58.844Z,59.92
2016-10-05T01:53:08.835Z,60.11
2016-10-05T01:54:18.499Z,60.3
2016-10-05T01:55:28.787Z,60.3
2016-10-05T01:56:39.065Z,60.3
2016-10-05T01:57:49.054Z,60.3
2016-10-05T01:58:59.032Z,60.21
2016-10-05T02:00:09.029Z,60.3
2016-10-05T02:01:19.002Z,60.11
2016-10-05T02:02:29.287Z,59.92
2016-10-05T02:03:39.253Z,60.21
2016-10-05T02:04:49.555Z,59.92
2016-10-05T02:05:59.847Z,59.92
2016-10-05T02:07:10.133Z,59.92
2016-10-05T02:08:20.125Z,60.02
2016-10-05T02:09:30.421Z,60.3
2016-10-05T02:10:40.713Z,59.83
2016-10-05T02:11:50.696Z,60.3
2016-10-05T02:13:00.997Z,60.4
2016-10-05T02:14:10.979Z,59.92
2016-10-05T02:15:21.267Z,60.49
2016-10-05T02:16:31.251Z,60.46
2016-10-05T02:17:41.550Z,60.21
2016-10-05T02:18:51.827Z,59.99
2016-10-05T02:20:01.818Z,60.08
2016-10-05T02:21:11.488Z,60.02
2016-10-05T02:22:21.780Z,60.27
2016-10-05T02:23:31.754Z,60.46
2016-10-05T02:24:42.048Z,60.46
2016-10-05T02:25:52.042Z,60.56
2016-10-05T02:27:01.722Z,60.08
2016-10-05T02:28:12.005Z,59.99
2016-10-05T02:29:22.290Z,60.46
2016-10-05T02:30:32.269Z,60.37
2016-10-05T02:31:42.566Z,60.27
2016-10-05T02:32:52.881Z,59.8
2016-10-05T02:34:02.845Z,59.99
2016-10-05T02:35:13.134Z,59.99
2016-10-05T02:36:23.418Z,59.89
2016-10-05T02:37:33.405Z,59.99
2016-10-05T02:38:43.376Z,59.99
2016-10-05T02:39:53.679Z,59.89
2016-10-05T02:41:03.964Z,59.89
2016-10-05T02:42:13.645Z,59.89
2016-10-05T02:43:23.629Z,59.89
2016-10-05T02:44:33.599Z,59.8
2016-10-05T02:45:43.574Z,59.99
2016-10-05T02:46:53.866Z,59.8
2016-10-05T02:48:03.540Z,59.99
2016-10-05T02:49:13.201Z,59.8
2016-10-05T02:50:23.489Z,59.8
2016-10-05T02:51:33.149Z,59.8
2016-10-05T02:52:43.456Z,59.89
2016-10-05T02:53:53.451Z,59.99
2016-10-05T02:55:03.423Z,60.08
2016-10-05T02:56:13.403Z,60.18
2016-10-05T02:57:23.388Z,60.08
2016-10-05T02:58:33.354Z,60.18
2016-10-05T02:59:43.018Z,60.08
2016-10-05T03:32:01.957Z,58.41
2016-10-05T03:33:11.919Z,59.27
2016-10-05T03:34:21.878Z,59.55
2016-10-05T03:35:32.157Z,60.41
2016-10-05T03:36:42.445Z,60.03
2016-10-05T03:37:52.446Z,61.26
2016-10-05T03:39:02.432Z,60.69
2016-10-05T03:40:12.715Z,61.55
2016-10-05T03:41:22.991Z,61.2
2016-10-05T03:42:32.962Z,61.39
2016-10-05T03:43:43.228Z,61.39
2016-10-05T03:44:53.506Z,61.2
2016-10-05T03:46:03.818Z,61.39
2016-10-05T03:47:13.788Z,61.58
2016-10-05T03:48:24.087Z,61.52
2016-10-05T03:49:34.358Z,60.75
2016-10-05T03:50:44.634Z,61.13
2016-10-05T03:51:54.935Z,61.04
2016-10-05T03:53:04.917Z,61.52
2016-10-05T03:54:14.895Z,60.6
2016-10-05T03:55:24.867Z,60.6
2016-10-05T03:56:35.150Z,60.69
2016-10-05T03:57:45.435Z,60.31
2016-10-05T03:58:55.410Z,60.5
2016-10-05T04:00:05.693Z,60.21
2016-10-05T04:01:15.993Z,60.21
2016-10-05T04:02:25.978Z,60.31
2016-10-05T04:03:36.259Z,60.31
2016-10-05T04:04:46.228Z,60.31
2016-10-05T04:05:56.210Z,60.41
2016-10-05T04:07:05.864Z,60.41
2016-10-05T04:08:15.835Z,60.41
2016-10-05T04:09:26.121Z,60.21
2016-10-05T04:10:35.778Z,60.5
2016-10-05T04:11:45.759Z,60.41
2016-10-05T04:12:56.050Z,60.53
2016-10-05T04:14:06.049Z,60.21
2016-10-05T04:15:16.336Z,60.12
2016-10-05T04:16:26.318Z,60.21
2016-10-05T04:17:36.622Z,59.74
2016-10-05T04:18:46.898Z,60.21
2016-10-05T04:19:57.181Z,59.96
2016-10-05T04:21:07.459Z,60.12
2016-10-05T04:22:17.746Z,59.77
2016-10-05T04:23:27.409Z,59.86
2016-10-05T04:24:37.718Z,59.93
2016-10-05T04:25:48.022Z,60.34
2016-10-05T04:26:57.982Z,59.86
2016-10-05T04:28:07.942Z,60.12
2016-10-05T04:29:18.227Z,59.96
2016-10-05T04:30:28.216Z,60.05
2016-10-05T04:31:38.189Z,59.96
2016-10-05T04:32:48.155Z,59.93
2016-10-05T04:33:58.136Z,59.96
2016-10-05T04:35:08.116Z,59.93
2016-10-05T04:36:18.429Z,59.83
2016-10-05T04:37:28.712Z,60.02
2016-10-05T04:38:38.678Z,60.02
2016-10-05T04:39:48.669Z,60.02
2016-10-05T04:40:58.646Z,60.02
2016-10-05T04:42:08.313Z,60.02
2016-10-05T04:43:18.598Z,60.02
2016-10-05T04:44:28.890Z,60.02
2016-10-05T04:45:38.886Z,59.93
2016-10-05T04:46:49.162Z,59.83
2016-10-05T04:47:59.135Z,60.02
2016-10-05T04:49:09.101Z,60.02
2016-10-05T04:50:19.390Z,60.02
2016-10-05T04:51:29.684Z,60.12
2016-10-05T04:52:39.657Z,60.21
2016-10-05T04:53:49.952Z,60.31
2016-10-05T04:54:59.931Z,60.21
2016-10-05T04:56:09.906Z,60.21
2016-10-05T04:57:19.878Z,59.74
2016-10-05T04:58:30.160Z,59.64
2016-10-05T04:59:40.441Z,60.15
2016-10-05T05:00:50.734Z,59.64
2016-10-05T05:02:01.019Z,59.86
2016-10-05T05:03:11.016Z,59.83
2016-10-05T05:04:20.982Z,59.83
2016-10-05T05:05:31.269Z,59.93
2016-10-05T05:06:41.545Z,60.05
2016-10-05T05:07:51.828Z,60.05
2016-10-05T05:09:01.823Z,59.93
2016-10-05T05:10:11.491Z,59.93
2016-10-05T05:11:21.761Z,60.02
2016-10-05T05:12:32.088Z,59.83
2016-10-05T05:13:42.381Z,59.58
2016-10-05T05:14:52.663Z,60.15
2016-10-05T05:16:02.623Z,59.39
2016-10-05T05:17:13.081Z,59.96
2016-10-05T05:18:23.370Z,59.86
2016-10-05T05:19:33.655Z,59.96
2016-10-05T05:20:43.941Z,59.86
2016-10-05T05:21:54.218Z,59.29
2016-10-05T05:23:04.509Z,60.05
2016-10-05T05:24:14.813Z,59.86
2016-10-05T05:25:25.097Z,59.58
2016-10-05T05:26:35.380Z,59.86
2016-10-05T05:27:45.380Z,59.96
2016-10-05T05:28:55.359Z,60.05
2016-10-05T05:30:05.659Z,59.77
2016-10-05T05:31:15.941Z,59.77
2016-10-05T05:32:25.603Z,59.96
2016-10-05T05:33:35.584Z,59.58
2016-10-05T05:34:45.860Z,59.67
2016-10-05T05:35:55.852Z,59.77
2016-10-05T05:37:05.853Z,59.67
2016-10-05T05:38:15.526Z,59.67
2016-10-05T05:39:25.525Z,59.86
2016-10-05T05:40:35.511Z,59.58
2016-10-05T05:41:45.792Z,59.58
2016-10-05T05:42:56.077Z,59.86
2016-10-05T05:44:06.380Z,59.39
2016-10-05T05:45:16.361Z,59.39
2016-10-05T05:46:26.645Z,59.58
2016-10-05T05:47:36.929Z,59.48
2016-10-05T05:48:47.201Z,59.86
2016-10-05T05:49:57.183Z,59.67
2016-10-05T05:51:07.465Z,59.67
2016-10-05T05:52:17.751Z,59.67
2016-10-05T05:53:28.032Z,59.58
2016-10-05T05:54:38.000Z,59.67
2016-10-05T05:55:47.997Z,59.67
2016-10-05T05:56:58.272Z,59.67
2016-10-05T05:58:08.239Z,59.86
2016-10-05T05:59:17.900Z,59.77
2016-10-05T06:00:27.919Z,59.39
2016-10-05T06:01:38.215Z,59.58
2016-10-05T06:02:48.178Z,59.58
2016-10-05T06:03:57.219Z,59.58
2016-10-05T06:05:07.485Z,59.48
2016-10-05T06:06:16.855Z,59.77
2016-10-05T06:07:26.543Z,59.67
2016-10-05T06:08:36.504Z,59.8
2016-10-05T06:09:46.782Z,59.7
2016-10-05T06:10:57.068Z,59.67
2016-10-05T06:12:07.040Z,59.99
2016-10-05T06:13:17.317Z,59.32
2016-10-05T06:14:27.299Z,59.51
2016-10-05T06:15:37.587Z,59.51
2016-10-05T06:16:47.853Z,59.42
2016-10-05T06:17:58.144Z,59.32
2016-10-05T06:19:08.426Z,59.51
2016-10-05T06:20:18.408Z,59.13
2016-10-05T06:21:27.789Z,59.7
2016-10-05T06:22:38.068Z,59.7
2016-10-05T06:23:48.349Z,59.61
2016-10-05T06:24:58.639Z,59.7
2016-10-05T06:26:08.931Z,59.7
2016-10-05T06:27:19.218Z,59.51
2016-10-05T06:28:29.540Z,59.99
2016-10-05T06:29:39.207Z,59.42
2016-10-05T06:30:49.474Z,59.32
2016-10-05T06:31:59.744Z,59.89
2016-10-05T06:33:10.021Z,59.8
2016-10-05T06:34:20.319Z,59.61
2016-10-05T06:35:30.302Z,59.42
2016-10-05T06:36:39.968Z,59.42
2016-10-05T06:37:49.968Z,59.03
2016-10-05T06:39:00.276Z,59.03
2016-10-05T06:40:10.561Z,58.69
2016-10-05T06:41:20.545Z,58.59
2016-10-05T06:42:30.525Z,59.16
2016-10-05T06:43:40.493Z,59.06
2016-10-05T06:44:50.164Z,59.16
2016-10-05T06:46:00.146Z,59.16
2016-10-05T06:47:09.817Z,58.5
2016-10-05T06:48:20.091Z,58.5
2016-10-05T06:49:29.761Z,58.4
2016-10-05T06:50:40.056Z,58.69
2016-10-05T06:51:50.040Z,58.72
2016-10-05T06:52:59.701Z,58.69
2016-10-05T06:54:09.673Z,58.72
2016-10-05T06:55:19.657Z,58.72
2016-10-05T06:56:29.647Z,58.62
2016-10-05T06:57:39.938Z,58.72
2016-10-05T06:58:50.231Z,59
2016-10-05T07:00:00.522Z,58.72
2016-10-05T07:01:10.516Z,58.72
2016-10-05T07:02:20.184Z,59.09
2016-10-05T07:03:30.497Z,59.19
2016-10-05T07:04:40.473Z,58.62
2016-10-05T07:05:50.458Z,59.09
2016-10-05T07:07:00.771Z,58.62
2016-10-05T07:08:10.744Z,58.81
2016-10-05T07:09:20.407Z,58.65
2016-10-05T07:10:30.382Z,58.75
2016-10-05T07:11:40.063Z,58.84
2016-10-05T07:12:49.735Z,58.75
2016-10-05T07:13:59.727Z,58.84
2016-10-05T07:15:09.709Z,58.75
2016-10-05T07:16:19.992Z,58.84
2016-10-05T07:17:29.967Z,58.65
2016-10-05T07:18:39.644Z,58.94
2016-10-05T07:19:49.930Z,58.65
2016-10-05T07:21:00.226Z,58.75
2016-10-05T07:22:10.517Z,58.75
2016-10-05T07:23:20.826Z,58.75
2016-10-05T07:24:30.197Z,58.68
2016-10-05T07:25:40.501Z,58.65
2016-10-05T07:26:50.793Z,58.77
2016-10-05T07:28:01.088Z,58.68
2016-10-05T07:29:11.055Z,58.68
2016-10-05T07:30:21.036Z,58.68
2016-10-05T07:31:31.149Z,58.68
2016-10-05T07:32:40.809Z,58.58
2016-10-05T07:33:50.482Z,58.68
2016-10-05T07:35:00.468Z,58.87
2016-10-05T07:36:10.456Z,58.68
2016-10-05T07:37:20.438Z,58.77
2016-10-05T07:38:30.727Z,58.77
2016-10-05T07:39:40.691Z,58.99
2016-10-05T07:40:50.972Z,58.8
2016-10-05T07:42:00.965Z,58.9
2016-10-05T07:43:10.966Z,58.99
2016-10-05T07:44:21.252Z,58.8
2016-10-05T07:45:31.529Z,58.7
2016-10-05T07:46:41.827Z,58.7
2016-10-05T07:47:51.812Z,58.61
2016-10-05T07:49:02.089Z,58.7
2016-10-05T07:50:11.770Z,59.19
2016-10-05T07:51:21.149Z,58.73
2016-10-05T07:52:31.440Z,58.64
2016-10-05T07:53:41.110Z,58.73
2016-10-05T07:54:51.390Z,58.73
2016-10-05T07:56:01.689Z,58.93
2016-10-05T07:57:11.358Z,58.73
2016-10-05T07:58:21.652Z,58.73
2016-10-05T07:59:31.300Z,58.36
2016-10-05T08:00:40.673Z,58.45
2016-10-05T08:01:50.338Z,58.29
2016-10-05T08:03:00.011Z,58.73
2016-10-05T08:04:10.313Z,59.59
2016-10-05T08:05:20.615Z,59.38
2016-10-05T08:06:30.590Z,59.31
2016-10-05T08:07:40.243Z,59.59
2016-10-05T08:08:50.529Z,59.12
2016-10-05T08:10:00.821Z,58.73
2016-10-05T08:11:10.807Z,58.26
2016-10-05T08:12:21.102Z,58.64
2016-10-05T08:13:31.392Z,57.97
2016-10-05T08:14:41.676Z,58.45
2016-10-05T08:15:51.335Z,58.19
2016-10-05T08:17:01.322Z,58.1
2016-10-05T08:18:11.612Z,58.1
2016-10-05T08:19:21.894Z,58.22
2016-10-05T08:20:31.546Z,57.9
2016-10-05T08:21:41.219Z,58.12
2016-10-05T08:22:51.202Z,57.71
2016-10-05T08:24:00.888Z,58.32
2016-10-05T08:25:10.800Z,57.84
2016-10-05T08:26:21.109Z,57.46
2016-10-05T08:27:31.393Z,57.29
2016-10-05T08:28:41.068Z,56.82
2016-10-05T08:29:51.394Z,57.29
2016-10-05T08:31:01.701Z,57.68
2016-10-05T08:32:11.994Z,57.29
2016-10-05T08:33:22.344Z,57.2
2016-10-05T08:34:32.359Z,56.84
2016-10-05T08:35:44.597Z,57.61
2016-10-05T08:36:54.626Z,56.84
2016-10-05T08:38:04.973Z,57.45
2016-10-05T08:39:15.309Z,57.42
2016-10-05T08:40:25.045Z,56.77
2016-10-05T08:41:35.065Z,56.97
2016-10-05T08:42:45.097Z,55.65
2016-10-05T08:43:55.441Z,56.07
2016-10-05T08:45:05.787Z,56.45
2016-10-05T08:46:15.822Z,56.54
2016-10-05T08:47:26.195Z,57.03
2016-10-05T08:48:36.209Z,57.57
2016-10-05T08:49:46.227Z,57.76
2016-10-05T08:50:56.587Z,57.86
2016-10-05T08:52:06.950Z,58.69
2016-10-05T08:53:17.281Z,58.88
2016-10-05T08:54:27.253Z,58.79
2016-10-05T08:55:37.582Z,58.88
2016-10-05T08:56:47.815Z,58.76
2016-10-05T08:57:57.844Z,58.86
2016-10-05T08:59:08.290Z,58.47
2016-10-05T09:00:18.790Z,57.7
2016-10-05T09:01:29.214Z,57.73
2016-10-05T09:02:39.568Z,57.73
2016-10-05T09:03:49.286Z,57.64
2016-10-05T09:04:59.863Z,58.4
2016-10-05T09:06:10.237Z,58.22
2016-10-05T09:07:20.671Z,58.12
2016-10-05T09:08:30.753Z,57.45
2016-10-05T09:09:40.797Z,57.28
2016-10-05T09:10:50.827Z,57.73
2016-10-05T09:12:01.194Z,57.35
2016-10-05T09:13:11.248Z,57.73
2016-10-05T09:14:21.646Z,57.38
2016-10-05T09:15:31.619Z,57.54
2016-10-05T09:16:41.997Z,58.02
2016-10-05T09:17:52.040Z,57.83
2016-10-05T09:19:01.824Z,56.71
2016-10-05T09:20:12.481Z,57.19
2016-10-05T09:21:22.893Z,58.62
2016-10-05T09:22:33.505Z,58.59
2016-10-05T09:23:43.560Z,59.27
2016-10-05T09:24:53.940Z,58.5
2016-10-05T09:26:04.004Z,58.5
2016-10-05T09:27:14.069Z,58.31
2016-10-05T09:28:24.674Z,59.36
2016-10-05T09:29:34.739Z,59.05
2016-10-05T09:30:45.396Z,58.56
2016-10-05T09:31:55.675Z,58.09
2016-10-05T09:33:05.969Z,57.51
2016-10-05T09:34:16.037Z,57.45
2016-10-05T09:35:26.426Z,57.35
2016-10-05T09:36:36.695Z,57.45
2016-10-05T09:37:46.734Z,57.26
2016-10-05T09:38:57.116Z,57.09
2016-10-05T09:40:07.194Z,56.99
2016-10-05T09:41:17.715Z,56.45
2016-10-05T09:42:27.780Z,56.83
2016-10-05T09:43:37.750Z,57.21
2016-10-05T09:44:48.347Z,57.31
2016-10-05T09:45:58.326Z,56.81
2016-10-05T09:47:08.369Z,56.26
2016-10-05T09:48:18.425Z,55.8
2016-10-05T09:49:28.817Z,56.12
2016-10-05T09:50:38.953Z,57.06
2016-10-05T09:51:48.994Z,56.29
2016-10-05T09:52:59.231Z,56.31
2016-10-05T09:54:09.621Z,56.7
2016-10-05T09:55:19.703Z,57.82
2016-10-05T09:56:30.079Z,58.17
2016-10-05T09:57:40.208Z,58.56
2016-10-05T09:58:50.596Z,58.91
2016-10-05T10:00:00.340Z,59.48
2016-10-05T10:01:09.734Z,59.45
2016-10-05T10:02:20.314Z,58.88
2016-10-05T10:03:30.945Z,58.88
2016-10-05T10:04:41.208Z,58.5
2016-10-05T10:05:51.568Z,57.67
2016-10-05T10:07:01.923Z,57.41
2016-10-05T10:08:11.641Z,57.03
2016-10-05T10:09:21.664Z,55.9
2016-10-05T10:10:32.021Z,55.16
2016-10-05T10:11:42.365Z,55.19
2016-10-05T10:12:52.712Z,56.24
2016-10-05T10:14:03.070Z,56.02
2016-10-05T10:15:13.439Z,57.46
2016-10-05T10:16:23.783Z,57.53
2016-10-05T10:17:34.106Z,57.89
2016-10-05T10:18:43.800Z,58.17
2016-10-05T10:19:53.818Z,58.27
2016-10-05T10:21:04.167Z,58.27
2016-10-05T10:22:14.181Z,57.7
2016-10-05T10:23:24.521Z,58.37
2016-10-05T10:24:34.869Z,58.65
2016-10-05T10:25:45.180Z,58.53
2016-10-05T10:26:54.892Z,58.91
2016-10-05T10:28:05.192Z,58.15
2016-10-05T10:29:15.240Z,58.72
2016-10-05T10:30:24.945Z,58.53
2016-10-05T10:31:34.026Z,58.62
2016-10-05T10:32:44.043Z,57.86
2016-10-05T10:33:54.369Z,57.57
2016-10-05T10:35:04.081Z,57.76
2016-10-05T10:36:14.424Z,57.86
2016-10-05T10:37:24.753Z,57.28
2016-10-05T10:38:35.098Z,56.04
2016-10-05T10:39:45.110Z,55.13
2016-10-05T10:40:55.453Z,54.04
2016-10-05T10:42:05.487Z,53.58
2016-10-05T10:43:15.829Z,53.9
2016-10-05T10:44:25.861Z,54.57
2016-10-05T10:45:36.188Z,55.02
2016-10-05T10:46:46.537Z,55.69
2016-10-05T10:47:56.557Z,56.56
2016-10-05T10:49:06.585Z,57.11
2016-10-05T10:50:16.946Z,57.85
2016-10-05T10:51:27.284Z,58.11
2016-10-05T10:52:37.627Z,58.01
2016-10-05T10:53:47.952Z,57.63
2016-10-05T10:54:58.291Z,57.82
2016-10-05T10:56:08.611Z,57.34
2016-10-05T10:57:18.950Z,57.6
2016-10-05T10:58:28.977Z,57.98
2016-10-05T10:59:39.001Z,57.7
2016-10-05T11:00:49.343Z,57.41
2016-10-05T11:01:59.682Z,56.93
2016-10-05T11:03:09.697Z,56.09
2016-10-05T11:04:20.036Z,55.74
2016-10-05T11:05:30.376Z,56.51
2016-10-05T11:06:40.395Z,56.41
2016-10-05T11:07:50.731Z,57.28
2016-10-05T11:09:00.752Z,56.96
2016-10-05T11:10:10.767Z,56.96
2016-10-05T11:11:21.334Z,56.96
2016-10-05T11:12:31.358Z,57.82
2016-10-05T11:13:41.396Z,57.34
2016-10-05T11:14:51.098Z,56.96
2016-10-05T11:16:01.138Z,56.57
2016-10-05T11:17:11.153Z,56.57
2016-10-05T11:18:21.486Z,56.67
2016-10-05T11:19:31.836Z,56.76
2016-10-05T11:20:42.178Z,56.93
2016-10-05T11:21:52.511Z,57.7
2016-10-05T11:23:02.830Z,57.7
2016-10-05T11:24:13.164Z,57.41
2016-10-05T11:25:22.879Z,57.48
2016-10-05T11:26:32.579Z,57.41
2016-10-05T11:27:42.594Z,57.5
2016-10-05T11:28:52.824Z,56.93
2016-10-05T11:30:03.145Z,56.74
2016-10-05T11:31:13.170Z,57.03
2016-10-05T11:32:23.200Z,57.03
2016-10-05T11:33:33.516Z,57.03
2016-10-05T11:34:43.534Z,56.76
2016-10-05T11:35:53.855Z,57.15
2016-10-05T11:37:04.186Z,56.76
2016-10-05T11:38:14.205Z,56.86
2016-10-05T11:39:24.550Z,56.48
2016-10-05T11:40:34.872Z,55.9
2016-10-05T11:41:45.204Z,56.51
2016-10-05T11:42:55.227Z,56.41
2016-10-05T11:44:04.936Z,56.7
2016-10-05T11:45:14.958Z,56.12
2016-10-05T11:46:25.320Z,56.12
2016-10-05T11:47:35.341Z,56.31
2016-10-05T11:48:45.058Z,56.22
2016-10-05T11:49:55.413Z,56.63
2016-10-05T11:51:05.754Z,56.6
2016-10-05T11:52:16.093Z,56.6
2016-10-05T11:53:26.427Z,56.6
2016-10-05T11:54:36.753Z,57.18
2016-10-05T11:55:46.758Z,56.96
2016-10-05T11:56:57.112Z,56.86
2016-10-05T11:58:07.454Z,57.06
2016-10-05T11:59:17.473Z,56.48
2016-10-05T12:00:27.501Z,56.41
2016-10-05T12:01:37.842Z,56.31
2016-10-05T12:02:48.178Z,57.28
2016-10-05T12:03:58.509Z,56.57
2016-10-05T12:05:08.544Z,56
2016-10-05T12:06:18.890Z,57.15
2016-10-05T12:07:29.226Z,55.62
2016-10-05T12:08:39.562Z,55.1
2016-10-05T12:09:49.302Z,54.64
2016-10-05T12:10:59.637Z,54.96
2016-10-05T12:12:09.646Z,55.79
2016-10-05T12:13:19.970Z,56.44
2016-10-05T12:14:30.283Z,56.89
2016-10-05T12:15:39.986Z,57.08
2016-10-05T12:16:50.007Z,57.56
2016-10-05T12:17:59.726Z,57.24
2016-10-05T12:19:10.082Z,57.34
2016-10-05T12:20:20.326Z,57.37
2016-10-05T12:21:30.045Z,56.98
2016-10-05T12:22:40.371Z,56.98
2016-10-05T12:23:50.716Z,56.89
2016-10-05T12:25:01.045Z,56.51
2016-10-05T12:26:11.072Z,56.34
2016-10-05T12:27:20.799Z,57.3
2016-10-05T12:28:30.511Z,56.89
2016-10-05T12:29:40.851Z,56.89
2016-10-05T12:30:50.883Z,57.28
2016-10-05T12:32:01.230Z,56.6
2016-10-05T12:33:11.261Z,56.98
2016-10-05T12:34:21.324Z,57.75
2016-10-05T12:35:31.351Z,58.69
2016-10-05T12:36:41.693Z,58.65
2016-10-05T12:37:51.408Z,58.65
2016-10-05T12:39:01.763Z,58.62
2016-10-05T12:40:12.101Z,58.15
2016-10-05T12:41:22.105Z,57.86
2016-10-05T12:42:32.057Z,57.5
2016-10-05T12:43:42.408Z,55.62
2016-10-05T12:44:52.438Z,55.74
2016-10-05T12:46:02.809Z,55.1
2016-10-05T12:47:12.846Z,54.55
2016-10-05T12:48:22.863Z,54.64
2016-10-05T12:49:33.217Z,54.19
2016-10-05T12:50:43.787Z,55.53
2016-10-05T12:51:53.824Z,55.89
2016-10-05T12:53:04.172Z,56.63
2016-10-05T12:54:14.243Z,56.63
2016-10-05T12:55:24.589Z,56.24
2016-10-05T12:56:34.923Z,56.44
2016-10-05T12:57:45.249Z,55.6
2016-10-05T12:58:55.589Z,55.05
2016-10-05T13:00:05.931Z,54.99
2016-10-05T13:01:15.955Z,56.3
2016-10-05T13:02:26.290Z,57.33
2016-10-05T13:03:36.316Z,57.88
2016-10-05T13:04:46.647Z,58.71
2016-10-05T13:05:56.351Z,58.97
2016-10-05T13:07:06.661Z,59.42
2016-10-05T13:08:16.996Z,59.71
2016-10-05T13:09:27.028Z,60.06
2016-10-05T13:10:37.057Z,59.87
2016-10-05T13:11:46.449Z,59.94
2016-10-05T13:12:56.772Z,60.03
2016-10-05T13:14:07.106Z,60.22
2016-10-05T13:15:16.847Z,60.1
2016-10-05T13:16:27.193Z,59.81
2016-10-05T13:17:37.538Z,58.86
2016-10-05T13:18:47.881Z,59.14
2016-10-05T13:19:58.243Z,58.88
2016-10-05T13:21:08.259Z,58.4
2016-10-05T13:22:17.974Z,58.4
2016-10-05T13:23:27.991Z,58.12
2016-10-05T13:24:37.727Z,57.83
2016-10-05T13:25:47.426Z,57.83
2016-10-05T13:26:57.758Z,58.24
2016-10-05T13:28:08.089Z,58.22
2016-10-05T13:29:17.818Z,58.69
2016-10-05T13:30:28.155Z,58.88
2016-10-05T13:31:38.167Z,59.43
2016-10-05T13:32:48.205Z,59.52
2016-10-05T13:33:58.207Z,59.78
2016-10-05T13:35:07.911Z,59.69
2016-10-05T13:36:18.217Z,59.75
2016-10-05T13:37:28.538Z,59.84
2016-10-05T13:38:38.851Z,60.01
2016-10-05T13:39:48.892Z,60.27
2016-10-05T13:40:59.209Z,60.27
2016-10-05T13:42:09.526Z,59.76
2016-10-05T13:43:19.864Z,60.33
2016-10-05T13:44:30.180Z,59.85
2016-10-05T13:45:40.198Z,59.56
2016-10-05T13:46:50.204Z,59.09
2016-10-05T13:48:00.221Z,58.9
2016-10-05T13:49:10.534Z,58.33
2016-10-05T13:50:20.551Z,58.33
2016-10-05T13:51:30.887Z,58.14
2016-10-05T13:52:41.210Z,58.14
2016-10-05T13:53:51.215Z,58.51
2016-10-05T13:55:00.912Z,58.04
2016-10-05T13:56:10.942Z,58.42
2016-10-05T13:57:21.303Z,58.61
2016-10-05T13:58:31.621Z,58.14
2016-10-05T13:59:41.626Z,58.33
2016-10-05T14:00:51.648Z,58.23
2016-10-05T14:02:01.982Z,58.14
2016-10-05T14:03:12.305Z,58.23
2016-10-05T14:04:22.645Z,57.94
2016-10-05T14:05:32.341Z,57.75
2016-10-05T14:06:42.341Z,58.04
2016-10-05T14:07:52.649Z,58.26
2016-10-05T14:09:02.966Z,58.04
2016-10-05T14:10:13.301Z,58.8
2016-10-05T14:11:22.994Z,58.7
2016-10-05T14:12:33.531Z,58.8
2016-10-05T14:13:43.843Z,58.99
2016-10-05T14:14:53.848Z,58.7
2016-10-05T14:16:03.869Z,59.28
2016-10-05T14:17:13.881Z,59.44
2016-10-05T14:18:23.891Z,59.63
2016-10-05T14:19:34.244Z,59.63
2016-10-05T14:20:44.588Z,59.63
2016-10-05T14:21:54.583Z,59.25
2016-10-05T14:23:04.592Z,59.44
2016-10-05T14:24:14.902Z,59.53
2016-10-05T14:25:25.246Z,59.63
2016-10-05T14:26:35.249Z,59.44
2016-10-05T14:27:45.277Z,59.63
2016-10-05T14:28:55.604Z,59.44
2016-10-05T14:30:05.303Z,59.06
2016-10-05T14:31:15.001Z,58.68
2016-10-05T14:32:25.037Z,58.77
2016-10-05T14:33:34.709Z,58.87
2016-10-05T14:34:44.749Z,58.87
2016-10-05T14:35:55.094Z,58.87
2016-10-05T14:37:05.421Z,59.16
2016-10-05T14:38:15.467Z,58.77
2016-10-05T14:39:25.487Z,58.58
2016-10-05T14:40:35.816Z,58.39
2016-10-05T14:41:46.139Z,58.2
2016-10-05T14:42:56.182Z,58.39
2016-10-05T14:44:05.883Z,58.39
2016-10-05T14:45:16.215Z,57.92
2016-10-05T14:46:26.534Z,58.23
2016-10-05T14:47:36.239Z,58.23
2016-10-05T14:48:46.276Z,57.85
2016-10-05T14:49:56.600Z,57.94
2016-10-05T14:51:06.658Z,57.85
2016-10-05T14:52:16.989Z,57.94
2016-10-05T14:53:27.005Z,57.65
2016-10-05T14:54:37.034Z,57.65
2016-10-05T14:55:47.351Z,57.68
2016-10-05T14:56:57.349Z,57.78
2016-10-05T14:58:07.651Z,57.5
2016-10-05T14:59:17.678Z,58.16
2016-10-05T15:00:27.993Z,58.07
2016-10-05T15:01:38.011Z,58.07
2016-10-05T15:02:48.350Z,58.45
2016-10-05T15:03:58.368Z,58.26
2016-10-05T15:05:08.074Z,58.54
2016-10-05T15:06:18.080Z,58.83
2016-10-05T15:07:28.086Z,58.9
2016-10-05T15:08:37.793Z,58.7
2016-10-05T15:09:47.806Z,58.61
2016-10-05T15:10:57.849Z,58.7
2016-10-05T15:12:08.157Z,58.8
2016-10-05T15:13:18.489Z,58.7
2016-10-05T15:14:28.505Z,58.99
2016-10-05T15:15:38.523Z,58.7
2016-10-05T15:16:48.552Z,58.8
2016-10-05T15:17:58.575Z,58.7
2016-10-05T15:19:08.914Z,58.61
2016-10-05T15:20:19.260Z,58.7
2016-10-05T15:21:29.272Z,58.7
2016-10-05T15:22:39.611Z,59.09
2016-10-05T15:23:49.964Z,59.16
2016-10-05T15:25:00.010Z,59.06
2016-10-05T15:26:10.335Z,59.06
2016-10-05T15:27:20.353Z,59.25
2016-10-05T15:28:30.692Z,58.68
2016-10-05T15:29:41.013Z,59.16
2016-10-05T15:30:51.356Z,59.16
2016-10-05T15:32:01.681Z,58.87
2016-10-05T15:33:11.371Z,59.16
2016-10-05T15:34:21.374Z,58.87
2016-10-05T15:35:31.395Z,58.97
2016-10-05T15:36:41.695Z,58.97
2016-10-05T15:37:52.015Z,59.16
2016-10-05T15:39:02.347Z,58.97